Time;durP1;ratioP1;P1;durP2;ratioP2;P2;SDS_P1;SDS_P2;PMS_P1;PMS_P2;Temp;Humidity;BMP_temperature;BMP_pressure;BME280_temperature;BME280_humidity;BME280_pressure;Samples;Min_cycle;Max_cycle;Signal;HPM_P1;HPM_P2
2022/05/27 00:02:20;;;;;;;0.20;0.20;;;22.50;44.50;;;;;;6266605;28;20074;-67
2022/05/27 00:05:20;;;;;;;0.30;0.28;;;22.50;44.30;;;;;;6267549;28;20142;-67
2022/05/27 00:08:22;;;;;;;0.63;0.30;;;22.50;44.40;;;;;;6267920;28;20033;-67
2022/05/27 00:11:23;;;;;;;0.20;0.20;;;22.50;44.40;;;;;;6258222;28;20025;-66
2022/05/27 00:14:24;;;;;;;0.20;0.20;;;22.50;44.40;;;;;;6242946;28;20121;-66
2022/05/27 00:17:25;;;;;;;0.30;0.20;;;22.50;44.40;;;;;;6243236;28;20022;-68
2022/05/27 00:20:26;;;;;;;0.57;0.32;;;22.50;44.40;;;;;;6264806;28;20063;-66
2022/05/27 00:23:27;;;;;;;0.22;0.20;;;22.50;44.30;;;;;;6246873;28;20017;-67
2022/05/27 00:26:27;;;;;;;0.30;0.10;;;22.50;44.40;;;;;;6242614;28;20060;-67
2022/05/27 00:29:28;;;;;;;0.38;0.17;;;22.50;44.40;;;;;;6242802;28;20036;-67
2022/05/27 00:32:29;;;;;;;0.10;0.10;;;22.50;44.30;;;;;;6261634;28;20072;-67
2022/05/27 00:35:29;;;;;;;0.43;0.10;;;22.50;44.40;;;;;;6256688;28;20029;-67
2022/05/27 00:38:30;;;;;;;0.20;0.20;;;22.50;44.40;;;;;;6242454;28;20163;-67
2022/05/27 00:41:31;;;;;;;0.10;0.10;;;22.50;44.40;;;;;;6242610;28;20056;-67
2022/05/27 00:44:31;;;;;;;0.10;0.10;;;22.50;44.40;;;;;;6242281;28;20028;-67
2022/05/27 00:47:38;;;;;;;0.38;0.20;;;22.50;44.30;;;;;;6242916;28;20039;-67
2022/05/27 00:50:42;;;;;;;0.20;0.17;;;22.50;44.30;;;;;;6244493;28;20029;-67
2022/05/27 00:54:01;;;;;;;0.20;0.20;;;22.50;44.30;;;;;;6250336;28;20021;-67
2022/05/27 00:57:05;;;;;;;0.30;0.28;;;22.50;44.30;;;;;;6242359;28;20672;-67
2022/05/27 01:00:09;;;;;;;0.30;0.20;;;22.50;44.30;;;;;;6242299;28;20095;-66
2022/05/27 01:03:14;;;;;;;0.85;0.20;;;22.50;44.30;;;;;;6242255;28;20025;-68
2022/05/27 01:06:14;;;;;;;0.20;0.20;;;22.50;44.30;;;;;;6241782;28;20029;-66
2022/05/27 01:09:15;;;;;;;0.10;0.10;;;22.50;44.90;;;;;;6242428;28;20036;-67
2022/05/27 01:12:18;;;;;;;0.20;0.20;;;22.50;44.20;;;;;;6241993;28;20025;-67
2022/05/27 01:15:26;;;;;;;0.10;0.10;;;22.50;44.20;;;;;;6242412;28;20026;-67
2022/05/27 01:22:17;;;;;;;0.30;0.20;;;22.50;44.30;;;;;;6241800;28;20037;-67
2022/05/27 01:25:51;;;;;;;0.20;0.20;;;22.50;44.20;;;;;;6240380;28;20071;-66
2022/05/27 01:29:27;;;;;;;0.30;0.20;;;22.50;44.20;;;;;;6241906;28;20025;-66
2022/05/27 01:32:40;;;;;;;0.20;0.15;;;22.50;44.20;;;;;;6241518;28;20547;-67
2022/05/27 01:35:58;;;;;;;0.30;0.20;;;22.50;44.20;;;;;;6242005;28;20104;-67
2022/05/27 01:39:09;;;;;;;0.15;0.15;;;22.50;44.10;;;;;;6241712;28;20029;-66
2022/05/27 01:42:20;;;;;;;0.15;0.15;;;22.50;44.10;;;;;;6241542;28;20041;-66
2022/05/27 01:45:58;;;;;;;0.25;0.20;;;22.50;44.30;;;;;;6241796;28;20026;-66
2022/05/27 01:49:43;;;;;;;0.10;0.10;;;22.50;44.10;;;;;;6241920;28;20036;-67
2022/05/27 01:52:49;;;;;;;0.20;0.20;;;22.50;44.20;;;;;;6239565;28;20038;-66
2022/05/27 01:55:55;;;;;;;0.20;0.20;;;22.50;44.30;;;;;;6241602;28;20048;-68
2022/05/27 01:59:01;;;;;;;0.30;0.20;;;22.50;44.10;;;;;;6241791;28;20096;-67
2022/05/27 02:02:17;;;;;;;0.20;0.20;;;22.50;44.00;;;;;;6240480;28;20026;-67
2022/05/27 02:05:48;;;;;;;0.10;0.10;;;22.50;44.10;;;;;;6241675;28;20032;-66
2022/05/27 02:08:52;;;;;;;0.90;0.30;;;22.50;44.10;;;;;;6241765;28;20108;-67
2022/05/27 02:11:58;;;;;;;0.10;0.10;;;22.50;44.10;;;;;;6241763;28;20433;-67
2022/05/27 02:15:08;;;;;;;0.20;0.20;;;22.50;44.70;;;;;;6260935;28;20413;-69
2022/05/27 02:18:34;;;;;;;0.10;0.10;;;22.50;44.00;;;;;;6268647;28;20166;-67
2022/05/27 02:21:42;;;;;;;0.10;0.10;;;22.50;44.00;;;;;;6270445;28;20238;-67
2022/05/27 02:24:48;;;;;;;0.10;0.10;;;22.50;44.10;;;;;;6268995;28;20021;-67
2022/05/27 02:28:01;;;;;;;0.20;0.20;;;22.50;44.00;;;;;;6270384;28;20079;-67
2022/05/27 02:31:07;;;;;;;0.20;0.20;;;22.50;44.10;;;;;;6269991;28;20021;-67
2022/05/27 02:37:47;;;;;;;0.10;0.10;;;22.50;44.00;;;;;;6269948;28;20079;-66
2022/05/27 02:41:17;;;;;;;0.40;0.20;;;22.50;44.00;;;;;;6267415;28;20279;-67
2022/05/27 02:44:41;;;;;;;0.13;0.10;;;22.50;44.00;;;;;;6247310;28;20033;-68
2022/05/27 02:47:52;;;;;;;0.10;0.10;;;22.50;43.90;;;;;;6245217;28;20045;-68
2022/05/27 02:51:19;;;;;;;0.10;0.10;;;22.50;44.00;;;;;;6245339;28;20041;-66
2022/05/27 02:54:28;;;;;;;0.17;0.17;;;22.50;44.00;;;;;;6266842;28;20025;-67
2022/05/27 02:57:44;;;;;;;0.10;0.10;;;22.50;44.00;;;;;;6269755;28;20429;-68
2022/05/27 03:00:46;;;;;;;0.10;0.10;;;22.50;44.00;;;;;;6268411;28;20028;-67
2022/05/27 03:03:46;;;;;;;0.10;0.10;;;22.50;44.00;;;;;;6269208;28;20021;-67
2022/05/27 03:06:59;;;;;;;0.25;0.20;;;22.50;44.00;;;;;;6268365;28;20055;-66
2022/05/27 03:10:35;;;;;;;0.10;0.10;;;22.50;44.00;;;;;;6269432;28;20025;-68
2022/05/27 03:13:58;;;;;;;0.10;0.10;;;22.50;43.90;;;;;;6255525;28;20025;-67
2022/05/27 03:17:20;;;;;;;0.22;0.10;;;22.50;44.00;;;;;;6244309;28;20380;-67
2022/05/27 03:20:46;;;;;;;0.20;0.20;;;22.50;44.00;;;;;;6244550;28;20395;-67
2022/05/27 03:24:08;;;;;;;0.20;0.20;;;22.50;43.90;;;;;;6267500;28;20048;-67
2022/05/27 03:27:28;;;;;;;0.13;0.10;;;22.50;43.90;;;;;;6269088;28;20425;-68
2022/05/27 03:30:51;;;;;;;0.20;0.10;;;22.50;43.90;;;;;;6265952;28;20071;-66
2022/05/27 03:34:11;;;;;;;0.35;0.20;;;22.50;43.90;;;;;;6268269;28;20064;-67
2022/05/27 03:37:30;;;;;;;0.60;0.43;;;22.50;43.90;;;;;;6268214;28;20567;-67
2022/05/27 03:40:38;;;;;;;0.10;0.10;;;22.50;43.90;;;;;;6266785;28;20126;-67
2022/05/27 03:43:39;;;;;;;0.10;0.10;;;22.50;43.90;;;;;;6258434;28;20029;-66
2022/05/27 03:46:40;;;;;;;0.10;0.10;;;22.50;43.90;;;;;;6243359;28;20072;-66
2022/05/27 03:49:41;;;;;;;1.02;0.10;;;22.50;43.90;;;;;;6243567;28;20018;-66
2022/05/27 03:52:48;;;;;;;0.20;0.20;;;22.50;43.90;;;;;;6251471;28;20032;-67
2022/05/27 03:55:48;;;;;;;0.20;0.20;;;22.50;43.90;;;;;;6268200;28;20032;-67
2022/05/27 03:58:49;;;;;;;0.20;0.20;;;22.60;44.00;;;;;;6267669;28;20021;-66
2022/05/27 04:01:52;;;;;;;0.10;0.10;;;22.50;43.90;;;;;;6267814;28;20037;-67
2022/05/27 04:04:53;;;;;;;0.10;0.10;;;22.60;43.80;;;;;;6266426;28;20108;-66
2022/05/27 04:07:53;;;;;;;0.60;0.20;;;22.50;43.80;;;;;;6267779;28;20035;-66
2022/05/27 04:10:54;;;;;;;0.10;0.10;;;22.50;43.90;;;;;;6267570;28;20047;-67
2022/05/27 04:13:55;;;;;;;0.20;0.20;;;22.50;43.90;;;;;;6251354;28;20124;-66
2022/05/27 04:17:27;;;;;;;0.20;0.20;;;22.50;43.80;;;;;;6241375;28;20112;-66
2022/05/27 04:20:19;;;;;;;0.93;0.20;;;22.50;43.90;;;;;;6242841;28;20036;-66
2022/05/27 04:23:19;;;;;;;0.10;0.10;;;22.50;43.70;;;;;;6242583;28;20033;-67
2022/05/27 04:26:20;;;;;;;0.10;0.10;;;22.60;43.80;;;;;;6242757;28;20041;-67
2022/05/27 04:29:21;;;;;;;0.10;0.10;;;22.50;43.70;;;;;;6242488;28;20048;-67
2022/05/27 04:32:22;;;;;;;0.20;0.20;;;22.50;43.80;;;;;;6242003;28;20033;-67
2022/05/27 04:35:23;;;;;;;0.65;0.22;;;22.50;43.80;;;;;;6242621;28;20057;-66
2022/05/27 04:38:24;;;;;;;0.47;0.20;;;22.50;43.80;;;;;;6241963;28;20493;-66
2022/05/27 04:41:25;;;;;;;0.10;0.10;;;22.50;43.80;;;;;;6241222;28;20051;-66
2022/05/27 04:44:26;;;;;;;0.10;0.10;;;22.50;43.90;;;;;;6241736;28;20034;-66
2022/05/27 04:47:27;;;;;;;0.20;0.20;;;22.50;43.80;;;;;;6242581;28;20029;-66
2022/05/27 04:50:27;;;;;;;0.20;0.20;;;22.50;43.90;;;;;;6241806;28;20159;-66
2022/05/27 04:53:28;;;;;;;0.10;0.10;;;22.50;43.80;;;;;;6256443;28;20079;-66
2022/05/27 04:56:37;;;;;;;0.20;0.10;;;22.50;43.90;;;;;;6266681;28;20048;-66
2022/05/27 05:00:34;;;;;;;0.20;0.13;;;22.60;43.70;;;;;;6266610;28;20033;-67
2022/05/27 05:03:34;;;;;;;;;;;22.60;43.80;;;;;;6244748;28;20088;-67
2022/05/27 05:06:35;;;;;;;0.40;0.20;;;22.50;43.70;;;;;;6243094;28;19954;-67
2022/05/27 05:09:38;;;;;;;0.10;0.10;;;22.50;43.80;;;;;;6243017;28;20355;-67
2022/05/27 05:12:39;;;;;;;0.20;0.10;;;22.50;43.80;;;;;;6248552;28;20047;-66
2022/05/27 05:15:39;;;;;;;0.30;0.20;;;22.60;43.90;;;;;;6267685;28;20108;-67
2022/05/27 05:18:40;;;;;;;0.15;0.15;;;22.50;43.70;;;;;;6267720;28;20439;-67
2022/05/27 05:21:41;;;;;;;0.20;0.13;;;22.50;43.70;;;;;;6267509;28;20032;-69
2022/05/27 05:24:41;;;;;;;0.65;0.20;;;22.50;43.70;;;;;;6265927;28;20021;-69
2022/05/27 05:27:42;;;;;;;0.15;0.10;;;22.60;43.90;;;;;;6267517;28;20108;-69
2022/05/27 05:30:43;;;;;;;0.10;0.10;;;22.50;43.60;;;;;;6262507;28;20286;-69
2022/05/27 05:33:44;;;;;;;0.10;0.10;;;22.60;43.60;;;;;;6242700;28;20028;-69
2022/05/27 05:36:45;;;;;;;0.10;0.10;;;22.60;43.80;;;;;;6243122;28;20678;-69
2022/05/27 05:39:46;;;;;;;0.15;0.15;;;22.50;43.70;;;;;;6242389;28;20075;-69
2022/05/27 05:42:47;;;;;;;0.10;0.10;;;22.50;43.70;;;;;;6242633;28;20040;-69
2022/05/27 05:45:47;;;;;;;0.15;0.15;;;22.50;43.70;;;;;;6242894;28;20022;-69
2022/05/27 05:48:48;;;;;;;0.40;0.20;;;22.50;43.70;;;;;;6242670;28;20036;-69
2022/05/27 05:51:50;;;;;;;1.08;0.45;;;22.50;43.60;;;;;;6243927;28;20025;-67
2022/05/27 05:54:51;;;;;;;0.55;0.40;;;22.50;43.50;;;;;;6247400;28;20116;-67
2022/05/27 05:57:51;;;;;;;0.30;0.28;;;22.60;43.70;;;;;;6247427;28;20405;-67
2022/05/27 06:00:52;;;;;;;0.70;0.32;;;22.50;43.70;;;;;;6255448;28;20088;-68
2022/05/27 06:03:53;;;;;;;0.30;0.30;;;22.50;43.60;;;;;;6265754;28;20068;-68
2022/05/27 06:06:54;;;;;;;0.20;0.20;;;22.60;43.70;;;;;;6249511;28;20056;-67
2022/05/27 06:09:54;;;;;;;0.55;0.35;;;22.60;43.80;;;;;;6269698;28;20036;-67
2022/05/27 06:12:55;;;;;;;0.30;0.30;;;22.60;43.70;;;;;;6264424;28;20071;-68
2022/05/27 06:15:56;;;;;;;0.57;0.40;;;22.60;43.70;;;;;;6248739;28;20025;-67
2022/05/27 06:18:58;;;;;;;0.20;0.20;;;22.60;43.80;;;;;;6249107;28;20026;-67
2022/05/27 06:21:59;;;;;;;0.70;0.25;;;22.60;43.70;;;;;;6247325;28;20125;-66
2022/05/27 06:25:00;;;;;;;0.55;0.20;;;22.60;43.70;;;;;;6248741;28;20029;-67
2022/05/27 06:34:40;;;;;;;0.30;0.20;;;22.50;43.60;;;;;;6273057;28;20029;-67
2022/05/27 06:37:41;;;;;;;0.40;0.30;;;22.60;43.80;;;;;;6272972;28;20036;-66
2022/05/27 06:40:41;;;;;;;0.60;0.50;;;22.50;44.20;;;;;;6273260;28;20041;-67
2022/05/27 06:43:42;;;;;;;0.20;0.20;;;22.30;45.60;;;;;;6272529;28;20538;-67
2022/05/27 06:46:43;;;;;;;0.63;0.30;;;22.20;46.10;;;;;;6273272;28;20021;-67
2022/05/27 06:49:45;;;;;;;0.70;0.50;;;22.20;45.50;;;;;;6253697;28;20028;-67
2022/05/27 06:52:46;;;;;;;0.68;0.30;;;22.10;46.10;;;;;;6264427;28;20537;-67
2022/05/27 06:55:51;;;;;;;0.90;0.40;;;22.20;46.60;;;;;;6247961;28;20101;-67
2022/05/27 06:58:51;;;;;;;;;;;22.20;46.90;;;;;;6243555;28;20478;-67
2022/05/27 07:01:54;;;;;;;0.68;0.30;;;22.10;46.80;;;;;;6242196;28;19920;-67
2022/05/27 07:04:56;;;;;;;0.43;0.25;;;22.10;47.00;;;;;;6272277;28;20548;-67
2022/05/27 07:07:58;;;;;;;0.22;0.22;;;22.10;47.30;;;;;;6272961;28;20032;-67
2022/05/27 07:10:58;;;;;;;6.93;0.32;;;22.10;47.30;;;;;;6272192;28;20100;-67
2022/05/27 07:14:00;;;;;;;0.57;0.20;;;22.10;47.30;;;;;;6238219;28;20029;-67
2022/05/27 07:17:02;;;;;;;0.22;0.22;;;22.10;47.30;;;;;;6267190;28;20441;-67
2022/05/27 07:20:03;;;;;;;0.30;0.20;;;22.10;47.10;;;;;;6272492;28;20387;-67
2022/05/27 07:23:05;;;;;;;0.10;0.10;;;22.20;46.90;;;;;;6263903;28;20033;-67
2022/05/27 07:26:05;;;;;;;0.50;0.30;;;22.20;46.80;;;;;;6254947;28;20017;-67
2022/05/27 07:29:07;;;;;;;0.40;0.20;;;22.20;46.70;;;;;;6251344;28;20029;-67
2022/05/27 07:32:08;;;;;;;0.22;0.20;;;22.10;46.60;;;;;;6256565;28;20068;-67
2022/05/27 07:35:09;;;;;;;0.22;0.22;;;22.20;46.80;;;;;;6269647;28;20029;-67
2022/05/27 07:38:10;;;;;;;0.20;0.20;;;22.20;47.00;;;;;;6271856;28;20035;-63
2022/05/27 07:41:11;;;;;;;0.60;0.30;;;22.20;47.30;;;;;;6271943;28;20061;-67
2022/05/27 07:44:12;;;;;;;0.55;0.25;;;22.10;47.30;;;;;;6271802;28;20031;-66
2022/05/27 07:47:13;;;;;;;0.40;0.20;;;22.10;47.50;;;;;;6271806;28;20025;-67
2022/05/27 07:50:13;;;;;;;0.10;0.10;;;22.10;47.60;;;;;;6249302;28;20055;-67
2022/05/27 07:53:15;;;;;;;0.52;0.22;;;22.10;47.70;;;;;;6265685;28;20043;-66
2022/05/27 07:56:16;;;;;;;0.70;0.20;;;22.10;47.70;;;;;;6271376;28;20023;-67
2022/05/27 07:59:17;;;;;;;0.32;0.30;;;22.10;47.70;;;;;;6271638;28;20029;-67
2022/05/27 08:02:17;;;;;;;0.93;0.20;;;22.00;47.70;;;;;;6268885;28;20091;-66
2022/05/27 08:05:25;;;;;;;0.20;0.20;;;22.10;47.80;;;;;;6270412;28;20013;-67
2022/05/27 08:08:26;;;;;;;0.30;0.30;;;22.10;47.80;;;;;;6271300;28;20017;-67
2022/05/27 08:11:26;;;;;;;0.30;0.25;;;22.10;47.80;;;;;;6250909;28;20108;-68
2022/05/27 08:14:27;;;;;;;0.50;0.20;;;22.10;47.90;;;;;;6246488;28;20026;-67
2022/05/27 08:17:28;;;;;;;0.40;0.20;;;22.00;47.80;;;;;;6246559;28;20440;-68
2022/05/27 08:20:32;;;;;;;0.50;0.20;;;22.00;47.80;;;;;;6245675;28;20029;-67
2022/05/27 08:23:32;;;;;;;0.30;0.20;;;22.00;47.80;;;;;;6245729;28;20044;-66
2022/05/27 08:26:33;;;;;;;0.43;0.40;;;22.00;47.80;;;;;;5365945;28;10000168;-67
2022/05/27 08:29:34;;;;;;;0.20;0.20;;;22.00;47.90;;;;;;6246089;28;20390;-67
2022/05/27 08:32:34;;;;;;;0.30;0.30;;;22.00;47.90;;;;;;6281449;22;20053;-75
2022/05/27 08:38:55;;;;;;;0.30;0.30;;;22.00;47.90;;;;;;6203161;28;20918;-75
2022/05/27 08:42:18;;;;;;;0.25;0.20;;;22.00;47.90;;;;;;6219942;28;20033;-75
2022/05/27 08:45:28;;;;;;;0.52;0.20;;;22.00;47.80;;;;;;6221877;28;20049;-75
2022/05/27 08:48:33;;;;;;;0.10;0.10;;;22.00;48.00;;;;;;6219355;28;20053;-74
2022/05/27 08:51:41;;;;;;;0.30;0.28;;;22.10;48.00;;;;;;6220690;28;20039;-74
2022/05/27 08:54:58;;;;;;;0.83;0.23;;;22.00;48.00;;;;;;5312838;28;10000957;-74
2022/05/27 09:01:26;;;;;;;0.17;0.17;;;22.00;48.00;;;;;;6171702;28;20038;-74
2022/05/27 09:04:32;;;;;;;0.38;0.28;;;22.00;48.00;;;;;;6155437;28;20049;-75
2022/05/27 09:07:42;;;;;;;2.40;0.35;;;22.00;48.10;;;;;;6172657;28;20023;-75
2022/05/27 09:11:07;;;;;;;0.40;0.20;;;22.00;48.10;;;;;;6172624;28;20516;-75
2022/05/27 09:14:26;;;;;;;0.53;0.30;;;22.00;48.10;;;;;;6162778;28;20031;-74
2022/05/27 09:17:55;;;;;;;0.65;0.22;;;22.00;48.20;;;;;;6169524;28;20023;-75
2022/05/27 09:21:17;;;;;;;0.38;0.22;;;22.00;48.20;;;;;;6130619;28;20054;-75
2022/05/27 09:24:45;;;;;;;0.25;0.25;;;22.00;48.20;;;;;;6171882;28;20034;-74
2022/05/27 09:28:07;;;;;;;0.90;0.40;;;22.00;48.20;;;;;;6158482;28;20030;-74
2022/05/27 09:31:10;;;;;;;0.30;0.28;;;22.00;48.30;;;;;;6160040;28;20035;-77
2022/05/27 09:34:12;;;;;;;0.20;0.20;;;22.00;48.20;;;;;;6188002;28;20465;-76
2022/05/27 09:37:22;;;;;;;0.40;0.20;;;22.00;48.30;;;;;;6182338;28;20041;-75
2022/05/27 09:40:33;;;;;;;0.20;0.20;;;22.00;48.40;;;;;;6201663;28;20109;-73
2022/05/27 09:43:42;;;;;;;0.90;0.40;;;22.00;48.50;;;;;;6201039;28;20038;-75
2022/05/27 09:46:44;;;;;;;0.35;0.20;;;22.00;48.20;;;;;;6201346;28;20030;-75
2022/05/27 09:49:48;;;;;;;0.43;0.22;;;22.00;48.30;;;;;;6201231;28;20022;-75
2022/05/27 09:52:53;;;;;;;0.40;0.22;;;22.00;48.50;;;;;;6200716;28;20097;-75
2022/05/27 09:56:02;;;;;;;1.10;0.30;;;22.00;48.40;;;;;;6200866;28;20030;-75
2022/05/27 09:59:21;;;;;;;3.58;0.30;;;22.00;48.50;;;;;;6201005;28;20101;-75
2022/05/27 10:02:36;;;;;;;0.68;0.30;;;22.00;48.40;;;;;;6200631;28;20431;-75
2022/05/27 10:05:36;;;;;;;0.50;0.40;;;22.00;48.50;;;;;;6183328;28;20488;-76
2022/05/27 10:08:55;;;;;;;0.22;0.22;;;22.00;48.50;;;;;;6200439;28;20137;-76
2022/05/27 10:11:58;;;;;;;0.30;0.20;;;22.00;48.60;;;;;;6200693;28;20502;-75
2022/05/27 10:14:58;;;;;;;0.63;0.30;;;22.00;48.70;;;;;;6200328;28;20027;-75
2022/05/27 10:18:16;;;;;;;1.45;0.40;;;22.00;48.70;;;;;;6200650;28;20498;-76
2022/05/27 10:21:19;;;;;;;0.90;0.40;;;22.00;48.70;;;;;;6183520;28;20034;-75
2022/05/27 10:24:30;;;;;;;1.42;0.65;;;22.00;48.70;;;;;;6200204;28;20030;-75
2022/05/27 10:27:39;;;;;;;1.15;0.40;;;22.00;48.70;;;;;;6200643;28;20760;-75
2022/05/27 10:30:53;;;;;;;0.85;0.40;;;22.00;48.70;;;;;;6196060;28;20023;-76
2022/05/27 10:33:53;;;;;;;1.08;0.50;;;22.00;48.70;;;;;;6173180;28;20101;-75
2022/05/27 10:37:05;;;;;;;1.00;0.40;;;22.00;48.70;;;;;;6171002;28;20035;-76
2022/05/27 10:40:24;;;;;;;0.85;0.30;;;22.00;48.60;;;;;;6173864;28;20023;-76
2022/05/27 10:43:37;;;;;;;0.47;0.30;;;22.00;49.40;;;;;;6158432;28;20125;-76
2022/05/27 10:46:58;;;;;;;1.50;0.60;;;22.00;48.70;;;;;;6176327;28;20019;-76
2022/05/27 10:50:27;;;;;;;1.55;0.38;;;22.00;48.70;;;;;;6175650;28;20493;-76
2022/05/27 10:53:35;;;;;;;0.75;0.40;;;22.00;48.60;;;;;;6177238;28;20037;-75
2022/05/27 11:02:03;;;;;;;0.68;0.30;;;22.00;48.80;;;;;;6158534;28;20547;-76
2022/05/27 11:03:57;;;;;;;2.45;0.50;;;21.90;48.70;;;;;;6175698;28;20137;-76
2022/05/27 11:07:22;;;;;;;0.60;0.50;;;22.00;48.50;;;;;;6189841;28;20113;-75
2022/05/27 11:10:50;;;;;;;4.57;0.40;;;22.00;48.60;;;;;;6199171;28;20117;-76
2022/05/27 11:17:51;;;;;;;1.48;0.60;;;22.00;48.80;;;;;;6198972;28;20026;-76
2022/05/27 11:21:32;;;;;;;0.60;0.40;;;21.90;48.70;;;;;;6181351;28;20034;-76
2022/05/27 11:24:50;;;;;;;1.80;0.60;;;21.90;48.80;;;;;;6198831;28;20037;-76
2022/05/27 11:28:12;;;;;;;0.93;0.32;;;21.90;48.90;;;;;;6181391;28;20046;-76
2022/05/27 11:31:44;;;;;;;1.30;0.40;;;21.90;49.00;;;;;;6180714;28;20030;-76
2022/05/27 11:35:16;;;;;;;0.95;0.50;;;21.90;49.00;;;;;;6180753;28;20484;-75
2022/05/27 11:38:41;;;;;;;2.08;0.50;;;21.90;49.20;;;;;;6198902;28;20057;-75
2022/05/27 11:41:50;;;;;;;0.80;0.40;;;21.90;49.10;;;;;;6198234;28;20038;-75
2022/05/27 11:45:01;;;;;;;1.45;0.52;;;21.80;49.10;;;;;;6183423;28;20030;-76
2022/05/27 11:48:06;;;;;;;0.52;0.40;;;21.90;49.20;;;;;;6182413;28;20025;-76
2022/05/27 11:51:20;;;;;;;1.60;0.68;;;21.90;49.30;;;;;;6171069;28;20062;-76
2022/05/27 11:54:42;;;;;;;0.55;0.30;;;21.80;49.30;;;;;;6195272;28;20023;-76
2022/05/27 11:58:04;;;;;;;3.22;0.40;;;21.80;49.30;;;;;;6195254;28;20022;-76
2022/05/27 12:01:14;;;;;;;2.78;0.40;;;21.80;49.40;;;;;;6198266;28;20034;-75
2022/05/27 12:04:43;;;;;;;0.57;0.52;;;21.80;49.40;;;;;;6180045;28;20065;-76
2022/05/27 12:08:16;;;;;;;1.90;0.35;;;21.80;49.40;;;;;;6150122;28;20269;-76
2022/05/27 12:11:45;;;;;;;1.02;0.40;;;21.80;49.40;;;;;;6155895;28;20062;-75
2022/05/27 12:14:48;;;;;;;0.60;0.40;;;21.80;49.50;;;;;;6172796;28;20058;-76
2022/05/27 12:17:52;;;;;;;1.25;0.40;;;21.80;49.50;;;;;;6173335;28;20102;-75
2022/05/27 12:20:54;;;;;;;0.38;0.38;;;21.80;49.50;;;;;;6169747;28;20031;-76
2022/05/27 12:24:03;;;;;;;1.05;0.40;;;21.80;49.40;;;;;;6156395;28;20041;-76
2022/05/27 12:27:06;;;;;;;0.40;0.40;;;21.80;49.50;;;;;;6155953;28;20037;-76
2022/05/27 12:30:10;;;;;;;0.70;0.30;;;21.80;49.50;;;;;;6171053;28;20041;-75
2022/05/27 12:33:16;;;;;;;1.85;0.52;;;21.80;49.50;;;;;;6150628;28;20047;-76
2022/05/27 12:36:26;;;;;;;0.82;0.50;;;21.80;49.60;;;;;;6173468;28;20088;-75
2022/05/27 12:39:31;;;;;;;0.65;0.50;;;21.80;49.80;;;;;;6173466;28;20022;-76
2022/05/27 12:42:39;;;;;;;0.60;0.47;;;21.80;49.70;;;;;;6172905;28;20047;-76
2022/05/27 12:45:54;;;;;;;2.47;0.85;;;21.80;49.70;;;;;;6172880;28;20042;-76
2022/05/27 12:49:15;;;;;;;0.85;0.60;;;21.80;50.10;;;;;;6171561;28;20034;-76
2022/05/27 12:52:28;;;;;;;1.40;0.47;;;21.80;49.60;;;;;;6167577;28;20019;-75
2022/05/27 13:02:43;;;;;;;0.55;0.47;;;21.70;49.60;;;;;;6147684;28;20047;-75
2022/05/27 13:06:07;;;;;;;2.92;0.50;;;21.80;49.90;;;;;;6147962;28;20049;-76
2022/05/27 13:09:30;;;;;;;1.48;0.60;;;21.80;49.80;;;;;;6148556;28;20023;-76
2022/05/27 13:12:46;;;;;;;0.38;0.30;;;21.70;49.70;;;;;;6147903;28;20027;-75
2022/05/27 13:16:01;;;;;;;1.60;0.60;;;21.70;49.90;;;;;;6148856;28;20086;-76
2022/05/27 13:19:06;;;;;;;2.30;0.60;;;21.80;49.90;;;;;;6147553;28;20169;-75
2022/05/27 13:22:31;;;;;;;1.75;0.88;;;21.70;49.70;;;;;;6148365;28;20106;-75
2022/05/27 13:25:39;;;;;;;2.67;1.02;;;21.80;49.80;;;;;;6145495;28;20126;-76
2022/05/27 13:28:53;;;;;;;2.60;1.20;;;21.70;49.60;;;;;;6150857;28;20505;-75
2022/05/27 13:32:05;;;;;;;1.95;1.40;;;21.70;49.80;;;;;;6171895;28;20133;-75
2022/05/27 13:35:14;;;;;;;1.35;1.10;;;21.70;49.80;;;;;;6177220;28;20041;-75
2022/05/27 13:38:20;;;;;;;1.95;1.40;;;21.70;49.90;;;;;;6196107;28;20050;-75
2022/05/27 13:41:21;;;;;;;2.13;1.45;;;21.70;49.80;;;;;;6195411;28;20049;-75
2022/05/27 13:44:24;;;;;;;2.40;1.55;;;21.70;49.80;;;;;;6196144;28;20112;-75
2022/05/27 13:47:27;;;;;;;2.10;1.63;;;21.70;49.80;;;;;;6188639;28;20069;-75
2022/05/27 13:50:41;;;;;;;4.68;1.65;;;21.70;49.80;;;;;;6180309;28;20481;-75
2022/05/27 13:53:42;;;;;;;3.20;2.13;;;21.70;49.80;;;;;;6187934;28;20049;-75
2022/05/27 13:56:47;;;;;;;4.00;2.03;;;21.70;49.80;;;;;;6183874;28;20023;-75
2022/05/27 13:59:53;;;;;;;;;;;21.70;49.90;;;;;;6192793;28;20038;-75
2022/05/27 14:02:54;;;;;;;3.55;2.35;;;21.70;49.80;;;;;;6178463;28;20001;-75
2022/05/27 14:06:01;;;;;;;4.25;2.60;;;21.70;49.90;;;;;;6154232;28;20027;-75
2022/05/27 14:09:34;;;;;;;3.47;2.40;;;21.70;49.90;;;;;;6153653;28;20035;-75
2022/05/27 14:12:38;;;;;;;4.15;2.75;;;21.70;49.90;;;;;;6181092;28;20050;-76
2022/05/27 14:15:39;;;;;;;3.92;2.60;;;21.70;50.00;;;;;;6199834;28;20084;-75
2022/05/27 14:18:40;;;;;;;4.80;3.10;;;21.70;50.00;;;;;;6199760;28;20018;-76
2022/05/27 14:25:27;;;;;;;4.82;3.15;;;21.70;49.90;;;;;;6148856;29;20087;-75
2022/05/27 14:28:42;;;;;;;4.50;3.25;;;21.70;50.00;;;;;;6146860;29;20039;-75
2022/05/27 14:31:43;;;;;;;4.78;3.13;;;21.70;50.00;;;;;;6199161;28;20053;-76
2022/05/27 14:34:47;;;;;;;6.07;3.33;;;21.70;50.00;;;;;;6199046;28;20477;-75
2022/05/27 14:38:10;;;;;;;4.00;2.95;;;21.70;50.00;;;;;;6191561;28;20033;-75
2022/05/27 14:41:18;;;;;;;4.25;3.10;;;21.70;50.10;;;;;;6170932;28;20030;-75
2022/05/27 14:44:38;;;;;;;4.78;3.13;;;21.70;50.00;;;;;;6199144;28;20034;-75
2022/05/27 14:47:39;;;;;;;5.25;3.10;;;21.70;50.00;;;;;;6182430;28;20054;-76
2022/05/27 14:50:39;;;;;;;6.75;4.60;;;21.70;49.90;;;;;;6187442;28;20041;-75
2022/05/27 14:53:40;;;;;;;8.38;4.60;;;21.70;50.20;;;;;;6196962;28;20045;-75
2022/05/27 14:56:40;;;;;;;7.93;4.30;;;21.70;50.40;;;;;;6199169;28;20141;-75
2022/05/27 14:59:50;;;;;;;6.40;4.25;;;21.70;50.50;;;;;;6198838;28;20018;-75
2022/05/27 15:02:54;;;;;;;6.25;4.10;;;21.70;50.20;;;;;;6181026;28;20385;-75
2022/05/27 15:06:13;;;;;;;7.05;4.57;;;21.70;50.20;;;;;;6197601;28;20133;-74
2022/05/27 15:09:25;;;;;;;7.20;4.50;;;21.70;50.00;;;;;;6198686;28;20026;-75
2022/05/27 15:12:31;;;;;;;6.43;4.28;;;21.70;50.20;;;;;;6198292;28;20026;-75
2022/05/27 15:15:41;;;;;;;5.85;4.15;;;21.70;50.10;;;;;;6181661;28;20372;-75
2022/05/27 15:19:05;;;;;;;6.78;4.63;;;21.70;50.10;;;;;;6198618;28;20026;-73
2022/05/27 15:22:11;;;;;;;6.70;4.28;;;21.70;50.10;;;;;;6182676;28;20109;-75
2022/05/27 15:25:15;;;;;;;7.20;4.53;;;21.70;50.10;;;;;;6180403;28;20466;-75
2022/05/27 15:35:14;;;;;;;7.10;4.68;;;21.70;50.10;;;;;;6190849;28;20061;-74
2022/05/27 15:38:22;;;;;;;6.97;4.68;;;21.70;50.10;;;;;;6193619;28;20042;-75
2022/05/27 15:41:22;;;;;;;8.18;5.43;;;21.70;50.30;;;;;;6191492;28;20030;-74
2022/05/27 15:44:23;;;;;;;8.90;5.63;;;21.70;50.10;;;;;;6182920;28;20387;-74
2022/05/27 15:47:24;;;;;;;12.27;4.90;;;21.70;50.20;;;;;;6177108;28;20101;-76
2022/05/27 15:50:25;;;;;;;7.75;5.25;;;21.70;50.20;;;;;;6198040;28;20026;-75
2022/05/27 15:53:26;;;;;;;7.63;5.43;;;21.70;50.20;;;;;;6197422;28;20538;-74
2022/05/27 15:56:26;;;;;;;7.80;4.85;;;21.70;50.20;;;;;;6197656;28;20014;-75
2022/05/27 15:59:27;;;;;;;7.93;5.13;;;21.70;50.30;;;;;;6179689;28;20435;-75
2022/05/27 16:02:27;;;;;;;7.75;5.43;;;21.70;50.20;;;;;;6180472;28;20479;-75
2022/05/27 16:05:28;;;;;;;8.32;5.13;;;21.70;50.20;;;;;;6197692;28;20034;-75
2022/05/27 16:08:29;;;;;;;8.90;5.53;;;21.70;50.30;;;;;;6196123;28;20023;-75
2022/05/27 16:11:30;;;;;;;8.80;5.93;;;21.70;50.20;;;;;;6184069;28;20027;-76
2022/05/27 16:14:31;;;;;;;8.13;5.25;;;21.70;50.20;;;;;;6173146;28;20430;-75
2022/05/27 16:20:51;;;;;;;8.25;5.60;;;21.60;50.20;;;;;;6172757;28;20090;-75
2022/05/27 16:23:52;;;;;;;9.55;6.07;;;21.70;50.30;;;;;;6172679;28;20061;-76
2022/05/27 16:26:53;;;;;;;11.45;5.50;;;21.70;50.30;;;;;;6154282;28;20097;-75
2022/05/27 16:29:53;;;;;;;7.97;5.70;;;21.60;50.20;;;;;;6153688;28;20026;-75
2022/05/27 16:32:54;;;;;;;6.43;5.05;;;21.60;50.20;;;;;;6192438;28;20042;-75
2022/05/27 16:35:57;;;;;;;8.05;5.18;;;21.60;50.20;;;;;;6193953;28;20040;-74
2022/05/27 16:38:58;;;;;;;8.68;6.13;;;21.70;50.30;;;;;;6176910;28;20030;-75
2022/05/27 16:41:58;;;;;;;9.68;5.60;;;21.70;50.30;;;;;;6186673;28;20119;-75
2022/05/27 16:44:59;;;;;;;9.10;5.40;;;21.60;50.20;;;;;;6190302;28;20030;-75
2022/05/27 16:48:00;;;;;;;8.07;5.45;;;21.60;50.20;;;;;;6182678;28;20110;-75
2022/05/27 16:51:01;;;;;;;8.77;5.50;;;21.60;50.20;;;;;;6168814;28;20086;-74
2022/05/27 16:54:02;;;;;;;6.95;5.18;;;21.60;50.20;;;;;;6153393;28;20086;-75
2022/05/27 16:57:03;;;;;;;8.73;5.55;;;21.60;50.30;;;;;;6170423;28;20065;-74
2022/05/27 17:00:09;;;;;;;8.75;5.82;;;21.60;50.30;;;;;;6152909;28;20090;-75
2022/05/27 17:03:10;;;;;;;8.98;5.55;;;21.60;50.30;;;;;;6177721;28;20050;-75
2022/05/27 17:06:16;;;;;;;8.02;5.30;;;21.60;50.30;;;;;;6178696;28;20026;-75
2022/05/27 17:09:17;;;;;;;8.80;5.28;;;21.60;50.40;;;;;;6193796;28;20023;-75